createdAt,value
2023-10-01T00:02:01.223Z,3.20
2023-10-01T00:04:08.766Z,4.10
2023-10-01T00:06:11.383Z,3.75
2023-10-01T00:08:14.435Z,3.38
2023-10-01T00:10:17.788Z,3.10
2023-10-01T00:12:20.697Z,3.88
2023-10-01T00:14:28.240Z,3.63
2023-10-01T00:16:32.331Z,3.50
2023-10-01T00:18:35.969Z,3.95
2023-10-01T00:20:38.818Z,3.42
2023-10-01T00:22:41.567Z,3.95
2023-10-01T00:24:44.796Z,2.97
2023-10-01T00:26:47.767Z,3.47
2023-10-01T00:28:55.240Z,3.55
2023-10-01T00:31:00.556Z,3.63
2023-10-01T00:33:09.623Z,3.97
2023-10-01T00:35:15.144Z,3.80
2023-10-01T00:37:18.699Z,4.28
2023-10-01T00:39:22.069Z,3.30
2023-10-01T00:41:28.382Z,5.28
2023-10-01T00:43:34.235Z,4.30
2023-10-01T00:45:37.320Z,6.32
2023-10-01T00:47:42.538Z,6.05
2023-10-01T00:49:48.575Z,5.72
2023-10-01T00:51:51.870Z,5.13
2023-10-01T00:53:59.304Z,6.13
2023-10-01T00:56:04.310Z,5.53
2023-10-01T00:58:07.575Z,4.90
2023-10-01T01:00:15.832Z,7.28
2023-10-01T01:02:19.447Z,6.35
2023-10-01T01:04:24.710Z,5.80
2023-10-01T01:06:31.955Z,5.55
2023-10-01T01:08:48.637Z,6.55
2023-10-01T01:10:54.689Z,6.28
2023-10-01T01:12:57.162Z,5.53
2023-10-01T01:15:01.297Z,5.80
2023-10-01T01:17:06.456Z,5.75
2023-10-01T01:19:10.850Z,5.13
2023-10-01T01:21:17.111Z,5.13
2023-10-01T01:23:23.078Z,5.15
2023-10-01T01:25:27.735Z,5.15
2023-10-01T01:27:33.185Z,5.22
2023-10-01T01:29:42.507Z,5.70
2023-10-01T01:32:04.403Z,6.47
2023-10-01T01:34:14.517Z,6.03
2023-10-01T01:36:19.076Z,5.97
2023-10-01T01:38:25.137Z,6.10
2023-10-01T01:40:33.625Z,6.78
2023-10-01T01:42:36.945Z,6.72
2023-10-01T01:44:39.990Z,6.28
2023-10-01T01:46:49.682Z,6.18
2023-10-01T01:48:54.061Z,6.13
2023-10-01T01:50:59.762Z,5.78
2023-10-01T01:53:06.372Z,5.75
2023-10-01T01:55:25.321Z,6.28
2023-10-01T01:57:30.019Z,5.90
2023-10-01T01:59:33.338Z,6.40
2023-10-01T02:01:37.418Z,6.35
2023-10-01T02:03:46.456Z,6.82
2023-10-01T02:05:49.532Z,6.65
2023-10-01T02:07:52.155Z,6.43
2023-10-01T02:09:57.200Z,6.20
2023-10-01T02:12:00.299Z,6.35
2023-10-01T02:14:05.192Z,8.15
2023-10-01T02:16:31.449Z,6.13
2023-10-01T02:18:36.149Z,6.50
2023-10-01T02:20:39.237Z,6.50
2023-10-01T02:22:42.757Z,6.53
2023-10-01T02:24:57.813Z,7.43
2023-10-01T02:27:01.043Z,6.05
2023-10-01T02:29:04.890Z,6.20
2023-10-01T02:31:10.087Z,8.32
2023-10-01T02:33:22.904Z,7.00
2023-10-01T02:35:35.933Z,6.63
2023-10-01T02:37:44.602Z,7.53
2023-10-01T02:39:47.131Z,6.57
2023-10-01T02:42:11.207Z,6.20
2023-10-01T02:44:14.521Z,5.95
2023-10-01T02:46:17.868Z,5.47
2023-10-01T02:48:22.431Z,5.25
2023-10-01T02:50:26.431Z,5.50
2023-10-01T02:52:39.130Z,5.38
2023-10-01T02:54:42.166Z,5.88
2023-10-01T02:57:03.398Z,5.80
2023-10-01T02:59:11.469Z,6.03
2023-10-01T03:01:15.918Z,6.03
2023-10-01T03:03:19.008Z,5.53
2023-10-01T03:05:28.591Z,6.28
2023-10-01T03:07:38.712Z,5.78
2023-10-01T03:09:41.813Z,6.05
2023-10-01T03:11:46.378Z,6.45
2023-10-01T03:13:50.307Z,6.32
2023-10-01T03:16:13.638Z,6.47
2023-10-01T03:18:25.340Z,6.18
2023-10-01T03:20:42.060Z,5.53
2023-10-01T03:22:53.748Z,6.07
2023-10-01T03:24:59.893Z,5.93
2023-10-01T03:27:22.793Z,6.20
2023-10-01T03:29:36.243Z,6.25
2023-10-01T03:31:38.915Z,6.20
2023-10-01T03:33:42.160Z,6.15
2023-10-01T03:35:49.834Z,6.03
2023-10-01T03:38:10.818Z,6.63
2023-10-01T03:40:36.591Z,5.85
2023-10-01T03:42:40.500Z,6.78
2023-10-01T03:45:21.851Z,6.38
2023-10-01T03:47:25.387Z,6.57
2023-10-01T03:50:01.327Z,6.75
2023-10-01T03:52:05.897Z,6.50
2023-10-01T03:54:09.137Z,6.45
2023-10-01T03:56:15.007Z,6.13
2023-10-01T03:58:20.434Z,6.38
2023-10-01T04:00:36.604Z,6.65
2023-10-01T04:02:48.682Z,7.38
2023-10-01T04:04:58.812Z,7.35
2023-10-01T04:07:11.846Z,7.32
2023-10-01T04:09:20.523Z,7.05
2023-10-01T04:11:51.741Z,8.13
2023-10-01T04:14:10.096Z,6.32
2023-10-01T04:16:16.904Z,7.25
2023-10-01T04:18:20.322Z,6.75
2023-10-01T04:20:22.936Z,7.13
2023-10-01T04:22:27.573Z,6.07
2023-10-01T04:24:30.906Z,6.88
2023-10-01T04:26:37.304Z,6.97
2023-10-01T04:28:47.995Z,6.55
2023-10-01T04:30:53.041Z,7.47
2023-10-01T04:32:56.742Z,7.25
2023-10-01T04:35:13.608Z,6.00
2023-10-01T04:37:33.434Z,6.70
2023-10-01T04:39:40.048Z,8.43
2023-10-01T04:41:43.224Z,6.63
2023-10-01T04:44:07.659Z,7.40
2023-10-01T04:46:10.505Z,7.97
2023-10-01T04:48:17.736Z,7.78
2023-10-01T04:50:21.578Z,7.38
2023-10-01T04:52:26.236Z,6.75
2023-10-01T04:54:30.054Z,7.05
2023-10-01T04:56:32.616Z,7.93
2023-10-01T04:58:40.025Z,7.60
2023-10-01T05:00:47.106Z,7.03
2023-10-01T05:02:51.661Z,7.53
2023-10-01T05:05:12.066Z,7.57
2023-10-01T05:07:16.941Z,6.82
2023-10-01T05:09:24.129Z,7.45
2023-10-01T05:11:33.405Z,7.10
2023-10-01T05:13:36.398Z,5.90
2023-10-01T05:15:39.587Z,7.10
2023-10-01T05:17:43.379Z,5.85
2023-10-01T05:19:47.004Z,7.18
2023-10-01T05:21:49.956Z,7.35
2023-10-01T05:23:56.470Z,7.18
2023-10-01T05:25:59.200Z,7.25
2023-10-01T05:28:08.158Z,6.43
2023-10-01T05:30:32.188Z,7.60
2023-10-01T05:32:53.244Z,6.68
2023-10-01T05:35:15.856Z,7.65
2023-10-01T05:37:38.054Z,6.90
2023-10-01T05:42:02.728Z,7.35
2023-10-01T05:44:12.498Z,7.03
2023-10-01T05:46:16.648Z,7.10
2023-10-01T05:48:22.076Z,7.05
2023-10-01T05:50:31.353Z,7.20
2023-10-01T05:52:34.033Z,7.70
2023-10-01T05:54:52.471Z,6.85
2023-10-01T05:56:57.256Z,7.55
2023-10-01T05:59:02.024Z,6.85
2023-10-01T06:01:08.026Z,6.80
2023-10-01T06:03:11.961Z,6.18
2023-10-01T06:05:33.288Z,6.97
2023-10-01T06:07:35.948Z,6.35
2023-10-01T06:09:38.952Z,6.45
2023-10-01T06:11:50.455Z,5.93
2023-10-01T06:13:55.882Z,6.18
2023-10-01T06:16:13.600Z,6.55
2023-10-01T06:18:16.926Z,6.90
2023-10-01T06:20:25.461Z,6.45
2023-10-01T06:22:28.642Z,7.15
2023-10-01T06:24:32.826Z,7.80
2023-10-01T06:26:39.187Z,6.90
2023-10-01T06:28:42.983Z,7.07
2023-10-01T06:30:45.623Z,7.03
2023-10-01T06:32:48.427Z,6.47
2023-10-01T06:34:59.018Z,7.43
2023-10-01T06:37:03.358Z,7.30
2023-10-01T06:39:08.012Z,6.18
2023-10-01T06:41:15.190Z,6.30
2023-10-01T06:43:17.910Z,7.75
2023-10-01T06:45:38.446Z,7.72
2023-10-01T06:47:41.456Z,8.60
2023-10-01T06:49:59.498Z,7.45
2023-10-01T06:52:02.476Z,7.50
2023-10-01T06:54:07.069Z,6.97
2023-10-01T06:56:10.880Z,7.10
2023-10-01T06:58:14.781Z,7.70
2023-10-01T07:00:24.032Z,7.15
2023-10-01T07:02:28.314Z,7.70
2023-10-01T07:04:33.678Z,7.50
2023-10-01T07:06:38.436Z,8.18
2023-10-01T07:08:44.796Z,7.88
2023-10-01T07:22:58.098Z,8.05
2023-10-01T07:25:02.672Z,8.07
2023-10-01T07:27:13.634Z,8.35
2023-10-01T07:29:17.693Z,7.60
2023-10-01T07:31:21.391Z,7.03
2023-10-01T07:33:24.739Z,7.85
2023-10-01T07:35:30.684Z,7.82
2023-10-01T07:37:35.170Z,7.57
2023-10-01T07:39:39.434Z,7.07
2023-10-01T07:41:46.001Z,7.78
2023-10-01T07:43:51.003Z,6.57
2023-10-01T07:45:59.748Z,7.65
2023-10-01T07:48:07.199Z,7.90
2023-10-01T07:50:14.385Z,6.28
2023-10-01T07:52:21.436Z,6.60
2023-10-01T07:54:25.640Z,7.22
2023-10-01T07:56:29.333Z,6.68
2023-10-01T07:58:51.893Z,7.35
2023-10-01T08:01:21.840Z,6.82
2023-10-01T08:03:24.565Z,7.43
2023-10-01T08:05:35.447Z,6.13
2023-10-01T08:07:41.751Z,7.15
2023-10-01T08:09:53.539Z,6.15
2023-10-01T08:12:00.377Z,6.80
2023-10-01T08:14:07.313Z,7.13
2023-10-01T08:16:15.198Z,6.43
2023-10-01T08:18:36.947Z,5.88
2023-10-01T08:20:47.987Z,5.68
2023-10-01T08:23:09.641Z,6.00
2023-10-01T08:25:14.859Z,4.88
2023-10-01T08:27:33.460Z,4.63
2023-10-01T08:29:56.129Z,5.75
2023-10-01T08:31:58.682Z,4.80
2023-10-01T08:34:22.268Z,5.85
2023-10-01T08:36:27.769Z,4.97
2023-10-01T08:38:39.496Z,5.25
2023-10-01T08:40:42.852Z,5.03
2023-10-01T08:42:46.655Z,5.13
2023-10-01T08:44:56.311Z,4.35
2023-10-01T08:47:23.806Z,5.00
2023-10-01T08:49:32.752Z,4.88
2023-10-01T08:51:38.818Z,4.53
2023-10-01T08:53:48.252Z,5.18
2023-10-01T08:55:51.618Z,4.95
2023-10-01T08:57:55.009Z,5.03
2023-10-01T09:00:01.835Z,4.90
2023-10-01T09:02:16.768Z,4.65
2023-10-01T09:04:46.323Z,5.00
2023-10-01T09:07:00.992Z,5.22
2023-10-01T09:09:21.698Z,4.63
2023-10-01T09:11:43.839Z,4.50
2023-10-01T09:14:00.177Z,4.30
2023-10-01T09:16:13.258Z,4.32
2023-10-01T09:18:22.079Z,4.53
2023-10-01T09:21:04.611Z,4.93
2023-10-01T09:23:07.484Z,4.15
2023-10-01T09:25:32.349Z,3.80
2023-10-01T09:27:37.905Z,4.70
2023-10-01T09:29:47.780Z,4.55
2023-10-01T09:31:58.926Z,4.13
2023-10-01T09:34:33.332Z,3.78
2023-10-01T09:36:38.792Z,4.00
2023-10-01T09:39:04.695Z,3.72
2023-10-01T09:41:21.395Z,4.35
2023-10-01T09:43:32.369Z,4.55
2023-10-01T09:45:43.207Z,4.03
2023-10-01T09:47:47.303Z,4.30
2023-10-01T09:49:53.503Z,4.38
2023-10-01T09:52:00.754Z,3.83
2023-10-01T09:54:06.761Z,4.05
2023-10-01T09:56:14.190Z,4.30
2023-10-01T09:58:27.681Z,4.50
2023-10-01T10:00:43.562Z,3.85
2023-10-01T10:02:56.313Z,4.28
2023-10-01T10:04:59.648Z,3.05
2023-10-01T10:07:04.491Z,3.95
2023-10-01T10:09:27.330Z,3.83
2023-10-01T10:11:38.877Z,4.10
2023-10-01T10:13:47.974Z,3.50
2023-10-01T10:16:02.861Z,3.45
2023-10-01T10:18:17.668Z,4.30
2023-10-01T10:20:41.844Z,3.58
2023-10-01T10:23:07.958Z,2.85
2023-10-01T10:25:22.018Z,3.15
2023-10-01T10:27:29.175Z,2.72
2023-10-01T10:29:59.382Z,2.97
2023-10-01T10:32:11.676Z,3.05
2023-10-01T10:34:30.729Z,2.67
2023-10-01T10:36:52.235Z,2.70
2023-10-01T10:38:56.057Z,2.47
2023-10-01T10:41:09.836Z,2.50
2023-10-01T10:43:18.654Z,2.50
2023-10-01T10:45:24.216Z,2.65
2023-10-01T10:49:54.402Z,2.67
2023-10-01T10:52:00.514Z,2.40
2023-10-01T10:54:03.652Z,2.25
2023-10-01T10:56:12.283Z,1.80
2023-10-01T10:58:16.375Z,1.98
2023-10-01T11:00:29.635Z,2.20
2023-10-01T11:02:45.166Z,2.17
2023-10-01T11:04:47.977Z,2.42
2023-10-01T11:07:03.766Z,2.60
2023-10-01T11:09:27.844Z,2.20
2023-10-01T11:11:46.146Z,1.92
2023-10-01T11:13:49.351Z,1.88
2023-10-01T11:15:53.314Z,1.88
2023-10-01T11:18:03.514Z,2.08
2023-10-01T11:20:07.445Z,2.10
2023-10-01T11:22:11.689Z,2.00
2023-10-01T11:24:18.722Z,1.88
2023-10-01T11:26:29.082Z,2.13
2023-10-01T11:28:43.365Z,1.88
2023-10-01T11:30:46.451Z,1.77
2023-10-01T11:33:01.490Z,1.40
2023-10-01T11:35:06.712Z,1.80
2023-10-01T11:37:18.947Z,2.45
2023-10-01T11:39:39.737Z,1.70
2023-10-01T11:41:44.077Z,1.95
2023-10-01T12:01:56.286Z,1.63
2023-10-01T12:04:00.352Z,1.88
2023-10-01T12:06:03.718Z,2.08
2023-10-01T12:08:07.669Z,2.53
2023-10-01T12:10:32.962Z,2.33
2023-10-01T12:12:39.851Z,1.73
2023-10-01T12:14:55.374Z,2.38
2023-10-01T12:16:59.521Z,1.60
2023-10-01T12:19:22.096Z,1.52
2023-10-01T12:21:28.191Z,1.80
2023-10-01T12:23:35.141Z,1.55
2023-10-01T12:25:48.348Z,1.80
2023-10-01T12:27:52.064Z,1.90
2023-10-01T12:29:56.235Z,1.83
2023-10-01T12:32:01.270Z,1.90
2023-10-01T12:34:04.110Z,3.40
2023-10-01T12:36:34.429Z,2.67
2023-10-01T12:38:38.178Z,2.88
2023-10-01T12:40:42.241Z,2.35
2023-10-01T12:42:51.687Z,3.95
2023-10-01T12:45:14.931Z,4.55
2023-10-01T12:47:17.623Z,4.95
2023-10-01T12:49:20.538Z,2.22
2023-10-01T12:51:23.208Z,3.00
2023-10-01T12:53:26.514Z,2.17
2023-10-01T12:55:30.893Z,2.70
2023-10-01T12:57:40.515Z,1.83
2023-10-01T12:59:46.143Z,1.90
2023-10-01T13:01:53.800Z,1.70
2023-10-01T13:04:00.234Z,1.83
2023-10-01T13:06:07.272Z,1.83
2023-10-01T13:08:13.024Z,1.83
2023-10-01T13:10:19.113Z,1.63
2023-10-01T13:12:26.807Z,1.58
2023-10-01T13:16:37.377Z,2.10
2023-10-01T13:18:43.788Z,1.80
2023-10-01T13:20:59.071Z,1.58
2023-10-01T13:23:08.506Z,1.98
2023-10-01T13:25:11.345Z,2.00
2023-10-01T13:27:18.130Z,1.50
2023-10-01T13:29:32.317Z,1.70
2023-10-01T13:31:35.564Z,2.03
2023-10-01T13:33:57.262Z,1.63
2023-10-01T13:36:14.446Z,1.73
2023-10-01T13:38:29.134Z,1.95
2023-10-01T13:40:34.007Z,1.50
2023-10-01T13:42:55.249Z,1.98
2023-10-01T13:45:16.640Z,1.63
2023-10-01T13:47:38.460Z,1.65
2023-10-01T13:50:00.102Z,1.45
2023-10-01T13:52:22.090Z,1.55
2023-10-01T13:54:42.836Z,2.17
2023-10-01T13:57:04.086Z,1.85
2023-10-01T13:59:25.637Z,1.63
2023-10-01T14:01:47.048Z,1.42
2023-10-01T14:04:08.737Z,1.42
2023-10-01T14:06:30.863Z,1.70
2023-10-01T14:08:45.872Z,1.40
2023-10-01T14:10:52.788Z,1.70
2023-10-01T14:12:58.721Z,2.03
2023-10-01T14:15:01.245Z,1.65
2023-10-01T14:17:16.464Z,2.22
2023-10-01T14:19:25.392Z,1.80
2023-10-01T14:21:29.448Z,1.90
2023-10-01T14:23:41.893Z,1.92
2023-10-01T14:26:17.089Z,1.60
2023-10-01T14:28:23.994Z,1.33
2023-10-01T14:30:27.647Z,1.70
2023-10-01T14:32:37.206Z,1.33
2023-10-01T14:34:41.040Z,1.55
2023-10-01T14:36:44.374Z,1.50
2023-10-01T14:38:48.640Z,1.40
2023-10-01T14:41:02.342Z,1.30
2023-10-01T14:43:05.765Z,1.63
2023-10-01T14:45:11.622Z,2.00
2023-10-01T14:47:19.341Z,2.80
2023-10-01T14:49:25.323Z,1.90
2023-10-01T14:51:27.984Z,2.15
2023-10-01T14:53:38.221Z,2.53
2023-10-01T14:55:42.533Z,3.67
2023-10-01T14:57:53.840Z,3.15
2023-10-01T14:59:58.190Z,3.30
2023-10-01T15:02:01.557Z,1.90
2023-10-01T15:04:19.438Z,2.67
2023-10-01T15:06:24.665Z,2.65
2023-10-01T15:08:31.598Z,2.97
2023-10-01T15:10:34.221Z,4.20
2023-10-01T15:12:52.212Z,4.88
2023-10-01T15:15:08.080Z,4.18
2023-10-01T15:17:21.487Z,3.97
2023-10-01T15:19:28.607Z,3.08
2023-10-01T15:21:33.455Z,2.92
2023-10-01T15:23:37.892Z,3.17
2023-10-01T15:25:41.070Z,3.08
2023-10-01T15:27:43.698Z,2.28
2023-10-01T15:29:54.714Z,2.42
2023-10-01T15:31:58.179Z,2.20
2023-10-01T15:34:20.975Z,1.90
2023-10-01T15:36:24.121Z,2.30
2023-10-01T15:38:34.971Z,2.00
2023-10-01T15:40:53.598Z,1.80
2023-10-01T15:42:56.927Z,2.00
2023-10-01T15:45:01.925Z,1.98
2023-10-01T15:47:05.617Z,2.45
2023-10-01T15:49:21.356Z,2.20
2023-10-01T15:51:28.042Z,1.80
2023-10-01T15:53:31.230Z,1.98
2023-10-01T15:55:34.087Z,2.10
2023-10-01T15:57:36.761Z,1.67
2023-10-01T15:59:39.317Z,1.95
2023-10-01T16:01:52.992Z,2.15
2023-10-01T16:03:56.283Z,1.98
2023-10-01T16:06:11.241Z,1.88
2023-10-01T16:08:24.289Z,1.88
2023-10-01T16:10:27.321Z,2.20
2023-10-01T16:12:30.723Z,1.90
2023-10-01T16:14:36.858Z,1.52
2023-10-01T16:16:45.261Z,1.40
2023-10-01T16:18:48.864Z,2.22
2023-10-01T16:20:53.025Z,1.85
2023-10-01T16:22:57.538Z,1.80
2023-10-01T16:25:11.336Z,1.67
2023-10-01T16:27:26.667Z,1.60
2023-10-01T16:29:29.677Z,1.70
2023-10-01T16:31:33.858Z,1.75
2023-10-01T16:33:43.032Z,2.17
2023-10-01T16:35:50.607Z,1.40
2023-10-01T16:37:58.381Z,1.48
2023-10-01T16:40:20.448Z,1.60
2023-10-01T16:42:24.083Z,1.75
2023-10-01T16:44:32.275Z,1.40
2023-10-01T16:46:35.392Z,1.50
2023-10-01T16:48:40.043Z,2.00
2023-10-01T16:51:04.643Z,1.73
2023-10-01T16:53:07.344Z,1.80
2023-10-01T16:55:10.408Z,1.60
2023-10-01T16:57:27.445Z,1.50
2023-10-01T16:59:33.542Z,1.75
2023-10-01T17:01:39.722Z,2.25
2023-10-01T17:05:53.885Z,1.52
2023-10-01T17:07:57.510Z,1.70
2023-10-01T17:10:07.179Z,1.23
2023-10-01T17:12:17.244Z,1.70
2023-10-01T17:14:21.302Z,1.67
2023-10-01T17:16:27.105Z,1.42
2023-10-01T17:18:40.327Z,1.67
2023-10-01T17:20:47.488Z,1.52
2023-10-01T17:22:50.635Z,1.30
2023-10-01T17:24:54.862Z,1.40
2023-10-01T17:27:18.108Z,1.65
2023-10-01T17:29:31.121Z,1.80
2023-10-01T17:31:41.645Z,2.72
2023-10-01T17:33:44.700Z,1.80
2023-10-01T17:35:50.583Z,1.50
2023-10-01T17:37:55.456Z,1.60
2023-10-01T17:40:02.750Z,1.88
2023-10-01T17:42:09.573Z,1.65
2023-10-01T17:44:17.465Z,1.95
2023-10-01T17:46:21.180Z,1.60
2023-10-01T17:48:24.505Z,2.20
2023-10-01T17:50:27.745Z,1.90
2023-10-01T17:52:38.520Z,1.80
2023-10-01T17:54:45.261Z,2.17
2023-10-01T17:56:48.259Z,2.28
2023-10-01T17:58:53.855Z,2.00
2023-10-01T18:00:58.768Z,2.20
2023-10-01T18:03:02.767Z,2.15
2023-10-01T18:05:27.105Z,2.00
2023-10-01T18:07:35.814Z,2.10
2023-10-01T18:09:47.359Z,2.10
2023-10-01T18:11:51.691Z,2.20
2023-10-01T18:13:58.955Z,1.65
2023-10-01T18:16:02.275Z,1.85
2023-10-01T18:18:05.460Z,2.15
2023-10-01T18:20:19.825Z,1.95
2023-10-01T18:22:27.792Z,2.00
2023-10-01T18:24:32.664Z,2.20
2023-10-01T18:26:36.169Z,2.25
2023-10-01T18:28:38.883Z,2.22
2023-10-01T18:30:50.205Z,2.58
2023-10-01T18:32:55.510Z,2.00
2023-10-01T18:34:58.972Z,2.80
2023-10-01T18:37:08.241Z,2.75
2023-10-01T18:39:28.184Z,3.38
2023-10-01T18:41:36.199Z,2.85
2023-10-01T18:43:38.830Z,2.42
2023-10-01T18:45:42.878Z,2.40
2023-10-01T18:47:46.744Z,2.80
2023-10-01T18:49:49.805Z,2.55
2023-10-01T18:51:55.337Z,2.83
2023-10-01T18:53:58.811Z,3.80
2023-10-01T18:56:02.604Z,3.22
2023-10-01T18:58:05.544Z,4.03
2023-10-01T19:00:22.669Z,2.92
2023-10-01T19:02:25.771Z,3.75
2023-10-01T19:04:33.452Z,3.30
2023-10-01T19:06:40.158Z,2.90
2023-10-01T19:08:43.185Z,3.53
2023-10-01T19:11:07.895Z,3.40
2023-10-01T19:13:10.862Z,3.30
2023-10-01T19:15:21.073Z,3.25
2023-10-01T19:17:23.989Z,4.93
2023-10-01T19:19:30.399Z,2.90
2023-10-01T19:21:36.900Z,3.20
2023-10-01T19:23:42.263Z,3.58
2023-10-01T19:25:45.003Z,3.05
2023-10-01T19:27:47.624Z,2.80
2023-10-01T19:29:51.026Z,3.42
2023-10-01T19:31:56.302Z,3.50
2023-10-01T19:34:00.570Z,3.17
2023-10-01T19:36:04.178Z,3.20
2023-10-01T19:38:06.948Z,3.72
2023-10-01T19:40:19.479Z,2.95
2023-10-01T19:42:25.659Z,4.43
2023-10-01T19:44:32.807Z,3.17
2023-10-01T19:46:38.960Z,3.95
2023-10-01T19:48:54.169Z,3.88
2023-10-01T19:50:58.160Z,2.95
2023-10-01T19:53:19.364Z,4.28
2023-10-01T19:55:25.983Z,4.38
2023-10-01T19:57:41.726Z,3.85
2023-10-01T19:59:49.194Z,3.35
2023-10-01T20:01:52.080Z,3.40
2023-10-01T20:03:57.278Z,3.33
2023-10-01T20:06:07.303Z,3.47
2023-10-01T20:08:10.956Z,4.60
2023-10-01T20:10:15.354Z,3.42
2023-10-01T20:12:18.962Z,2.88
2023-10-01T20:14:21.681Z,3.42
2023-10-01T20:16:28.174Z,3.78
2023-10-01T20:18:32.775Z,3.85
2023-10-01T20:20:36.059Z,4.53
2023-10-01T20:22:45.712Z,3.50
2023-10-01T20:24:53.021Z,4.15
2023-10-01T20:26:56.629Z,4.32
2023-10-01T20:29:00.599Z,5.28
2023-10-01T20:31:06.254Z,4.43
2023-10-01T20:33:16.889Z,5.63
2023-10-01T20:35:19.957Z,4.50
2023-10-01T20:37:25.043Z,4.60
2023-10-01T20:39:41.888Z,4.57
2023-10-01T20:41:45.112Z,3.90
2023-10-01T20:43:51.861Z,4.15
2023-10-01T20:47:59.154Z,4.00
2023-10-01T20:50:08.825Z,4.63
2023-10-01T20:52:12.554Z,3.88
2023-10-01T20:54:15.904Z,4.13
2023-10-01T20:56:27.255Z,5.45
2023-10-01T20:58:35.197Z,6.20
2023-10-01T21:00:40.571Z,5.88
2023-10-01T21:02:44.407Z,4.97
2023-10-01T21:04:52.534Z,4.57
2023-10-01T21:07:03.689Z,4.75
2023-10-01T21:09:20.525Z,6.20
2023-10-01T21:11:25.642Z,5.15
2023-10-01T21:13:28.720Z,4.55
2023-10-01T21:15:33.249Z,4.63
2023-10-01T21:17:36.359Z,4.80
2023-10-01T21:19:43.653Z,4.22
2023-10-01T21:21:47.975Z,4.95
2023-10-01T21:23:51.106Z,4.43
2023-10-01T21:25:55.452Z,4.60
2023-10-01T21:28:13.133Z,4.90
2023-10-01T21:30:18.113Z,4.03
2023-10-01T21:32:21.289Z,4.60
2023-10-01T21:34:25.713Z,4.38
2023-10-01T21:36:29.755Z,4.70
2023-10-01T21:38:32.686Z,4.55
2023-10-01T21:40:37.973Z,5.28
2023-10-01T21:42:43.515Z,4.60
2023-10-01T21:44:47.798Z,5.18
2023-10-01T21:46:50.504Z,4.13
2023-10-01T21:48:54.862Z,6.53
2023-10-01T21:51:01.380Z,4.60
2023-10-01T21:53:40.590Z,4.57
2023-10-01T21:55:43.811Z,5.60
2023-10-01T21:57:47.007Z,5.20
2023-10-01T21:59:50.244Z,5.25
2023-10-01T22:01:54.787Z,5.07
2023-10-01T22:04:00.814Z,5.53
2023-10-01T22:06:07.127Z,4.78
2023-10-01T22:08:26.089Z,4.50
2023-10-01T22:10:42.282Z,5.63
2023-10-01T22:12:50.087Z,4.43
2023-10-01T22:14:55.650Z,5.18
2023-10-01T22:16:58.920Z,4.90
2023-10-01T22:19:05.654Z,4.38
2023-10-01T22:21:08.208Z,4.60
2023-10-01T22:23:11.645Z,4.45
2023-10-01T22:25:17.473Z,5.32
2023-10-01T22:27:20.018Z,6.40
2023-10-01T22:29:34.469Z,6.82
2023-10-01T22:31:40.317Z,5.38
2023-10-01T22:33:46.922Z,5.95
2023-10-01T22:35:49.986Z,5.90
2023-10-01T22:38:02.552Z,5.93
2023-10-01T22:40:09.286Z,5.30
2023-10-01T22:42:25.168Z,5.70
2023-10-01T22:44:31.914Z,5.47
2023-10-01T22:46:34.333Z,4.47
2023-10-01T22:48:46.385Z,5.30
2023-10-01T22:50:52.725Z,5.30
2023-10-01T22:52:56.275Z,5.70
2023-10-01T22:55:00.931Z,5.55
2023-10-01T22:57:05.542Z,5.70
2023-10-01T22:59:08.821Z,5.65
2023-10-01T23:01:20.543Z,4.82
2023-10-01T23:03:32.582Z,5.85
2023-10-01T23:05:44.955Z,5.47
2023-10-01T23:07:49.367Z,5.97
2023-10-01T23:09:52.471Z,6.00
2023-10-01T23:11:55.532Z,6.57
2023-10-01T23:13:58.262Z,5.03
2023-10-01T23:16:17.654Z,4.93
2023-10-01T23:18:25.887Z,4.95
2023-10-01T23:20:34.718Z,6.45
2023-10-01T23:22:37.539Z,5.43
2023-10-01T23:24:43.289Z,5.60
2023-10-01T23:26:46.155Z,6.10
2023-10-01T23:29:10.386Z,5.30
2023-10-01T23:33:21.804Z,4.88
2023-10-01T23:35:58.004Z,5.75
2023-10-01T23:38:23.608Z,5.80
2023-10-01T23:40:27.035Z,5.05
2023-10-01T23:42:31.056Z,4.90
2023-10-01T23:44:52.434Z,7.68
2023-10-01T23:46:56.788Z,5.88
2023-10-01T23:48:59.504Z,5.82
2023-10-01T23:51:02.160Z,6.05
2023-10-01T23:53:07.633Z,7.07
2023-10-01T23:55:28.245Z,6.45
2023-10-01T23:57:31.000Z,7.63
2023-10-01T23:59:35.024Z,7.07
